Avo Nico — CUDR5 — position and weather

sailwx.info

Track history (hours):
 
Tides and Currents Weather Stations Pressure Air Temp Water Temp Dewpoint Dewpoint Depression Visibility Wind Speed Wind Dir Waves Ship Positions

Avo Nico

Last reported at 2018-Jun-23 10:43 UTC. Time now 2018-Jun-23 12:23 UTC.
Position N 37°57' W 009°33'.

MMSI: 263423380.

Date/timePositionNaut miles runAvg speedWind from/ knotsBaromVisibWave heightAir tempDewpointWater temp
2018-Jun-23 10:43N 37°57' W 009°33'1 2.4
2018-Jun-23 10:30N 37°57' W 009°32'1 2.4
2018-Jun-23 09:58N 37°58' W 009°31'1 2.4
2018-Jun-23 09:26N 37°59' W 009°30'1 2.5
2018-Jun-23 08:58N 37°60' W 009°29'1 2.4
2018-Jun-23 08:30N 38°01' W 009°29'1 2.5
2018-Jun-23 08:00N 38°02' W 009°29'1 2.4
2018-Jun-23 07:31N 38°03' W 009°28'3 2.8
2018-Jun-23 06:15N 38°06' W 009°25'1 5.1
2018-Jun-23 06:00N 38°07' W 009°25'1 1.8
2018-Jun-23 05:30N 38°06' W 009°25'0 0.5
2018-Jun-23 04:59N 38°06' W 009°25'0 0.5
2018-Jun-23 04:30N 38°06' W 009°25'0 0.0
2018-Jun-22 14:24N 38°06' W 009°25'1 2.5
2018-Jun-22 14:00N 38°05' W 009°26'1 2.6
2018-Jun-22 13:30N 38°04' W 009°27'1 2.5
2018-Jun-22 13:00N 38°03' W 009°27'1 2.4
2018-Jun-22 12:30N 38°02' W 009°28'2 2.4
2018-Jun-22 11:34N 37°60' W 009°29'0 2.5
2018-Jun-22 11:30N 37°60' W 009°29'1 2.4
2018-Jun-22 11:00N 37°59' W 009°30'5 2.3
2018-Jun-22 08:46N 37°54' W 009°34'8 1.8
2018-Jun-22 04:32N 38°01' W 009°29'0 2.4
2018-Jun-22 04:24N 38°01' W 009°29'1 2.4
2018-Jun-22 03:55N 38°02' W 009°29'6 3.1
2018-Jun-22 01:51N 38°08' W 009°24'3 7.2
2018-Jun-22 01:30N 38°10' W 009°22'4 7.5
2018-Jun-22 01:00N 38°13' W 009°19'4 7.6
2018-Jun-22 00:30N 38°16' W 009°16'4 7.9
2018-Jun-22 00:00N 38°19' W 009°13'4 8.2
2018-Jun-21 23:30N 38°22' W 009°10'4 8.3
2018-Jun-21 23:00N 38°25' W 009°07'1 1.8
2018-Jun-21 22:29N 38°26' W 009°07'0 0.0
2018-Jun-21 22:00N 38°26' W 009°07'0 0.0
2018-Jun-21 21:30N 38°26' W 009°07'0 0.0
2018-Jun-21 20:59N 38°26' W 009°07'0 0.1
2018-Jun-21 19:26N 38°26' W 009°07'0 0.0
2018-Jun-21 19:00N 38°26' W 009°07'0 0.0
2018-Jun-21 18:30N 38°26' W 009°07'0 0.2
2018-Jun-21 17:59N 38°26' W 009°07'0 0.0
2018-Jun-21 17:30N 38°26' W 009°07'0 0.0
2018-Jun-21 16:58N 38°26' W 009°07'0 0.0
2018-Jun-21 16:30N 38°26' W 009°07'0 0.0
2018-Jun-21 16:00N 38°26' W 009°07'0 0.2
2018-Jun-21 15:30N 38°26' W 009°07'3 6.8
2018-Jun-21 15:00N 38°23' W 009°09'4 8.1
2018-Jun-21 14:30N 38°20' W 009°12'4 8.0
2018-Jun-21 14:00N 38°17' W 009°14'4 8.2
2018-Jun-21 13:30N 38°13' W 009°17'4 8.3
2018-Jun-21 13:00N 38°10' W 009°20'11 0.4
2018-Jun-20 04:37N 38°00' W 009°29'28 2.2
2018-Jun-19 15:50N 38°24' W 009°08'3 7.6
2018-Jun-19 15:29N 38°26' W 009°07'1 1.0
2018-Jun-19 14:58N 38°26' W 009°07'0 0.0
2018-Jun-19 14:30N 38°26' W 009°07'0 0.0
2018-Jun-19 14:00N 38°26' W 009°07'0 0.0
2018-Jun-19 13:30N 38°26' W 009°07'0 0.1
2018-Jun-19 13:00N 38°26' W 009°07'0 0.0
2018-Jun-19 12:30N 38°26' W 009°07'0 0.0
2018-Jun-19 12:00N 38°26' W 009°07'0 0.0
2018-Jun-19 11:30N 38°26' W 009°07'0 0.0
2018-Jun-19 11:00N 38°26' W 009°07'0 0.0
2018-Jun-19 10:30N 38°26' W 009°07'0 0.8
2018-Jun-19 10:00N 38°26' W 009°07'4 7.8
2018-Jun-19 09:30N 38°23' W 009°10'4 7.7
2018-Jun-19 09:00N 38°20' W 009°13'4 8.1
2018-Jun-19 08:30N 38°17' W 009°16'16 0.3
2018-Jun-17 06:20N 38°01' W 009°11'1 4.1
2018-Jun-17 06:00N 38°02' W 009°11'2 4.2
2018-Jun-17 05:30N 38°04' W 009°11'4 7.3
2018-Jun-17 05:00N 38°08' W 009°10'4 7.0
2018-Jun-17 04:30N 38°11' W 009°09'3 7.1
2018-Jun-17 04:00N 38°15' W 009°09'4 7.1
2018-Jun-17 03:30N 38°18' W 009°08'4 7.2
2018-Jun-17 03:00N 38°22' W 009°07'4 7.2
2018-Jun-17 02:30N 38°25' W 009°07'1 2.3
2018-Jun-17 01:59N 38°26' W 009°07'0 0.0
2018-Jun-17 01:30N 38°26' W 009°07'0 0.0
2018-Jun-17 00:59N 38°26' W 009°07'0 0.0
2018-Jun-17 00:27N 38°26' W 009°07'0 0.0
2018-Jun-17 00:00N 38°26' W 009°07'0 0.0
2018-Jun-16 23:30N 38°26' W 009°07'0 0.0
2018-Jun-16 23:00N 38°26' W 009°07'0 0.0
2018-Jun-16 22:30N 38°26' W 009°07'0 0.0
2018-Jun-16 22:00N 38°26' W 009°07'0 0.0
2018-Jun-16 21:30N 38°26' W 009°07'0 0.0
2018-Jun-16 21:00N 38°26' W 009°07'0 0.0
2018-Jun-16 20:30N 38°26' W 009°07'0 0.4
2018-Jun-16 20:00N 38°26' W 009°06'3 6.8
2018-Jun-16 19:30N 38°23' W 009°07'3 6.7
2018-Jun-16 19:00N 38°20' W 009°07'18 1.4
2018-Jun-16 06:11N 38°02' W 009°12'1 7.9
2018-Jun-16 06:00N 38°03' W 009°12'4 8.2
2018-Jun-16 05:30N 38°07' W 009°14'4 8.3
2018-Jun-16 05:00N 38°10' W 009°16'4 8.1
2018-Jun-16 04:30N 38°14' W 009°18'4 8.0
2018-Jun-16 04:00N 38°18' W 009°21'4 7.7
2018-Jun-16 03:30N 38°21' W 009°23'4 7.7
2018-Jun-16 03:00N 38°25' W 009°24'4 7.9
2018-Jun-16 02:30N 38°29' W 009°26'4 7.9
2018-Jun-16 01:57N 38°33' W 009°28'4 8.1
2018-Jun-16 01:30N 38°36' W 009°30'4 7.8
2018-Jun-16 01:00N 38°39' W 009°33'4 7.8
2018-Jun-16 00:30N 38°43' W 009°34'4 7.9
2018-Jun-16 00:00N 38°47' W 009°34'4 8.1
2018-Jun-15 23:30N 38°51' W 009°33'4 8.2
2018-Jun-15 23:00N 38°55' W 009°31'4 8.2
2018-Jun-15 22:30N 38°59' W 009°30'4 8.4
2018-Jun-15 22:00N 39°03' W 009°29'4 8.6
2018-Jun-15 21:30N 39°07' W 009°28'5 8.3
2018-Jun-15 20:58N 39°12' W 009°26'  
Track history (hours):
 
Tides and Currents Weather Stations Pressure Air Temp Water Temp Dewpoint Dewpoint Depression Visibility Wind Speed Wind Dir Waves Ship Positions

Avo Nico

Last reported at 2018-Jun-23 10:43 UTC. Time now 2018-Jun-23 12:23 UTC.
Position N 37°57' W 009°33'.

MMSI: 263423380.

Date/timePositionNaut miles runAvg speedWind from/ knotsBaromVisibWave heightAir tempDewpointWater temp
2018-Jun-23 10:43N 37°57' W 009°33'1 2.4
2018-Jun-23 10:30N 37°57' W 009°32'1 2.4
2018-Jun-23 09:58N 37°58' W 009°31'1 2.4
2018-Jun-23 09:26N 37°59' W 009°30'1 2.5
2018-Jun-23 08:58N 37°60' W 009°29'1 2.4
2018-Jun-23 08:30N 38°01' W 009°29'1 2.5
2018-Jun-23 08:00N 38°02' W 009°29'1 2.4
2018-Jun-23 07:31N 38°03' W 009°28'3 2.8
2018-Jun-23 06:15N 38°06' W 009°25'1 5.1
2018-Jun-23 06:00N 38°07' W 009°25'1 1.8
2018-Jun-23 05:30N 38°06' W 009°25'0 0.5
2018-Jun-23 04:59N 38°06' W 009°25'0 0.5
2018-Jun-23 04:30N 38°06' W 009°25'0 0.0
2018-Jun-22 14:24N 38°06' W 009°25'1 2.5
2018-Jun-22 14:00N 38°05' W 009°26'1 2.6
2018-Jun-22 13:30N 38°04' W 009°27'1 2.5
2018-Jun-22 13:00N 38°03' W 009°27'1 2.4
2018-Jun-22 12:30N 38°02' W 009°28'2 2.4
2018-Jun-22 11:34N 37°60' W 009°29'0 2.5
2018-Jun-22 11:30N 37°60' W 009°29'1 2.4
2018-Jun-22 11:00N 37°59' W 009°30'5 2.3
2018-Jun-22 08:46N 37°54' W 009°34'8 1.8
2018-Jun-22 04:32N 38°01' W 009°29'0 2.4
2018-Jun-22 04:24N 38°01' W 009°29'1 2.4
2018-Jun-22 03:55N 38°02' W 009°29'6 3.1
2018-Jun-22 01:51N 38°08' W 009°24'3 7.2
2018-Jun-22 01:30N 38°10' W 009°22'4 7.5
2018-Jun-22 01:00N 38°13' W 009°19'4 7.6
2018-Jun-22 00:30N 38°16' W 009°16'4 7.9
2018-Jun-22 00:00N 38°19' W 009°13'4 8.2
2018-Jun-21 23:30N 38°22' W 009°10'4 8.3
2018-Jun-21 23:00N 38°25' W 009°07'1 1.8
2018-Jun-21 22:29N 38°26' W 009°07'0 0.0
2018-Jun-21 22:00N 38°26' W 009°07'0 0.0
2018-Jun-21 21:30N 38°26' W 009°07'0 0.0
2018-Jun-21 20:59N 38°26' W 009°07'0 0.1
2018-Jun-21 19:26N 38°26' W 009°07'0 0.0
2018-Jun-21 19:00N 38°26' W 009°07'0 0.0
2018-Jun-21 18:30N 38°26' W 009°07'0 0.2
2018-Jun-21 17:59N 38°26' W 009°07'0 0.0
2018-Jun-21 17:30N 38°26' W 009°07'0 0.0
2018-Jun-21 16:58N 38°26' W 009°07'0 0.0
2018-Jun-21 16:30N 38°26' W 009°07'0 0.0
2018-Jun-21 16:00N 38°26' W 009°07'0 0.2
2018-Jun-21 15:30N 38°26' W 009°07'3 6.8
2018-Jun-21 15:00N 38°23' W 009°09'4 8.1
2018-Jun-21 14:30N 38°20' W 009°12'4 8.0
2018-Jun-21 14:00N 38°17' W 009°14'4 8.2
2018-Jun-21 13:30N 38°13' W 009°17'4 8.3
2018-Jun-21 13:00N 38°10' W 009°20'11 0.4
2018-Jun-20 04:37N 38°00' W 009°29'28 2.2
2018-Jun-19 15:50N 38°24' W 009°08'3 7.6
2018-Jun-19 15:29N 38°26' W 009°07'1 1.0
2018-Jun-19 14:58N 38°26' W 009°07'0 0.0
2018-Jun-19 14:30N 38°26' W 009°07'0 0.0
2018-Jun-19 14:00N 38°26' W 009°07'0 0.0
2018-Jun-19 13:30N 38°26' W 009°07'0 0.1
2018-Jun-19 13:00N 38°26' W 009°07'0 0.0
2018-Jun-19 12:30N 38°26' W 009°07'0 0.0
2018-Jun-19 12:00N 38°26' W 009°07'0 0.0
2018-Jun-19 11:30N 38°26' W 009°07'0 0.0
2018-Jun-19 11:00N 38°26' W 009°07'0 0.0
2018-Jun-19 10:30N 38°26' W 009°07'0 0.8
2018-Jun-19 10:00N 38°26' W 009°07'4 7.8
2018-Jun-19 09:30N 38°23' W 009°10'4 7.7
2018-Jun-19 09:00N 38°20' W 009°13'4 8.1
2018-Jun-19 08:30N 38°17' W 009°16'16 0.3
2018-Jun-17 06:20N 38°01' W 009°11'1 4.1
2018-Jun-17 06:00N 38°02' W 009°11'2 4.2
2018-Jun-17 05:30N 38°04' W 009°11'4 7.3
2018-Jun-17 05:00N 38°08' W 009°10'4 7.0
2018-Jun-17 04:30N 38°11' W 009°09'3 7.1
2018-Jun-17 04:00N 38°15' W 009°09'4 7.1
2018-Jun-17 03:30N 38°18' W 009°08'4 7.2
2018-Jun-17 03:00N 38°22' W 009°07'4 7.2
2018-Jun-17 02:30N 38°25' W 009°07'1 2.3
2018-Jun-17 01:59N 38°26' W 009°07'0 0.0
2018-Jun-17 01:30N 38°26' W 009°07'0 0.0
2018-Jun-17 00:59N 38°26' W 009°07'0 0.0
2018-Jun-17 00:27N 38°26' W 009°07'0 0.0
2018-Jun-17 00:00N 38°26' W 009°07'0 0.0
2018-Jun-16 23:30N 38°26' W 009°07'0 0.0
2018-Jun-16 23:00N 38°26' W 009°07'0 0.0
2018-Jun-16 22:30N 38°26' W 009°07'0 0.0
2018-Jun-16 22:00N 38°26' W 009°07'0 0.0
2018-Jun-16 21:30N 38°26' W 009°07'0 0.0
2018-Jun-16 21:00N 38°26' W 009°07'0 0.0
2018-Jun-16 20:30N 38°26' W 009°07'0 0.4
2018-Jun-16 20:00N 38°26' W 009°06'3 6.8
2018-Jun-16 19:30N 38°23' W 009°07'3 6.7
2018-Jun-16 19:00N 38°20' W 009°07'18 1.4
2018-Jun-16 06:11N 38°02' W 009°12'1 7.9
2018-Jun-16 06:00N 38°03' W 009°12'4 8.2
2018-Jun-16 05:30N 38°07' W 009°14'4 8.3
2018-Jun-16 05:00N 38°10' W 009°16'4 8.1
2018-Jun-16 04:30N 38°14' W 009°18'4 8.0
2018-Jun-16 04:00N 38°18' W 009°21'4 7.7
2018-Jun-16 03:30N 38°21' W 009°23'4 7.7
2018-Jun-16 03:00N 38°25' W 009°24'4 7.9
2018-Jun-16 02:30N 38°29' W 009°26'4 7.9
2018-Jun-16 01:57N 38°33' W 009°28'4 8.1
2018-Jun-16 01:30N 38°36' W 009°30'4 7.8
2018-Jun-16 01:00N 38°39' W 009°33'4 7.8
2018-Jun-16 00:30N 38°43' W 009°34'4 7.9
2018-Jun-16 00:00N 38°47' W 009°34'4 8.1
2018-Jun-15 23:30N 38°51' W 009°33'4 8.2
2018-Jun-15 23:00N 38°55' W 009°31'4 8.2
2018-Jun-15 22:30N 38°59' W 009°30'4 8.4
2018-Jun-15 22:00N 39°03' W 009°29'4 8.6
2018-Jun-15 21:30N 39°07' W 009°28'5 8.3
2018-Jun-15 20:58N 39°12' W 009°26'  

Dump ship's entire track history